Terminal Aerodrome Forecast
Issued by NWS North Platte, NE

Home | Current Version | Previous Version | Graphics & Text | Print | Product List | Glossary On
Versions: 1 2 3 4 5 6 7 8 9 10 11 12 13 14 15 16 17 18 19 20 21 22 23 24 25 26
793
FTUS43 KLBF 251720
TAFVTN
TAF
KVTN 251720Z 2518/2618 16007KT P6SM SKC
     FM260300 15007KT P6SM SCT250
     FM260500 17005KT 3SM BR SCT005
     FM260800 17004KT 1SM BR OVC004
     FM261100 17004KT 1/2SM FG VV003
     FM261400 17004KT 1SM BR OVC004
     FM261600 18005KT 5SM BR OVC007=

USA.gov is the U.S. government's official web portal to all federal, state and local government web resources and services.